createdAt,value
2022-09-30T00:35:57.216Z,7.20
2022-09-30T00:38:25.088Z,6.70
2022-09-30T00:40:56.846Z,6.60
2022-09-30T00:43:55.113Z,6.60
2022-09-30T00:46:44.301Z,6.60
2022-09-30T00:49:23.872Z,6.60
2022-09-30T00:51:56.077Z,6.60
2022-09-30T00:54:30.802Z,6.60
2022-09-30T00:57:03.361Z,6.50
2022-09-30T00:59:42.884Z,6.40
2022-09-30T01:02:10.918Z,6.40
2022-09-30T01:04:38.928Z,6.40
2022-09-30T01:07:08.557Z,6.40
2022-09-30T01:09:39.462Z,6.30
2022-09-30T01:12:23.667Z,6.30
2022-09-30T01:14:55.526Z,6.30
2022-09-30T01:17:34.899Z,6.30
2022-09-30T01:20:24.336Z,6.30
2022-09-30T01:23:06.386Z,6.20
2022-09-30T01:25:58.788Z,6.20
2022-09-30T01:28:50.430Z,6.20
2022-09-30T01:31:17.791Z,6.20
2022-09-30T01:34:04.327Z,6.10
2022-09-30T01:36:53.535Z,6.10
2022-09-30T01:39:24.967Z,6.10
2022-09-30T01:42:19.231Z,6.10
2022-09-30T01:45:02.911Z,6.10
2022-09-30T01:47:36.981Z,6.10
2022-09-30T01:50:16.567Z,6.10
2022-09-30T01:53:14.801Z,6.00
2022-09-30T01:56:12.676Z,6.00
2022-09-30T01:58:57.601Z,6.00
2022-09-30T02:14:06.897Z,5.90
2022-09-30T02:16:48.680Z,5.90
2022-09-30T02:19:38.403Z,5.90
2022-09-30T02:22:24.060Z,5.90
2022-09-30T02:24:58.336Z,5.90
2022-09-30T02:27:32.446Z,5.90
2022-09-30T02:30:05.210Z,5.90
2022-09-30T02:32:38.016Z,5.90
2022-09-30T02:35:14.890Z,5.90
2022-09-30T02:37:50.515Z,5.90
2022-09-30T02:40:38.209Z,5.90
2022-09-30T02:43:06.820Z,5.90
2022-09-30T02:45:56.122Z,5.90
2022-09-30T02:48:30.134Z,5.90
2022-09-30T02:51:23.756Z,5.90
2022-09-30T02:54:17.926Z,5.90
2022-09-30T02:56:45.502Z,5.90
2022-09-30T02:59:14.674Z,5.80
2022-09-30T03:01:43.399Z,5.90
2022-09-30T03:04:14.329Z,5.90
2022-09-30T03:06:42.330Z,5.80
2022-09-30T03:09:10.143Z,5.80
2022-09-30T03:11:38.577Z,5.80
2022-09-30T03:14:17.125Z,5.80
2022-09-30T03:17:09.923Z,5.70
2022-09-30T03:20:01.764Z,5.70
2022-09-30T03:22:34.649Z,5.70
2022-09-30T03:25:11.686Z,5.70
2022-09-30T03:27:49.320Z,5.70
2022-09-30T03:30:24.673Z,5.70
2022-09-30T03:33:17.731Z,5.70
2022-09-30T03:36:02.184Z,5.70
2022-09-30T03:39:03.827Z,5.70
2022-09-30T03:41:37.071Z,5.60
2022-09-30T03:44:40.608Z,5.60
2022-09-30T03:47:11.703Z,5.60
2022-09-30T03:49:52.895Z,5.60
2022-09-30T03:52:22.260Z,5.60
2022-09-30T03:55:02.533Z,5.60
2022-09-30T03:57:31.017Z,5.60
2022-09-30T03:59:59.211Z,5.60
2022-09-30T04:02:27.920Z,5.50
2022-09-30T04:05:01.804Z,5.50
2022-09-30T04:07:28.920Z,5.50
2022-09-30T04:10:00.396Z,5.50
2022-09-30T04:12:28.162Z,5.50
2022-09-30T04:14:56.613Z,5.50
2022-09-30T04:17:24.176Z,5.50
2022-09-30T04:19:53.010Z,5.50
2022-09-30T04:22:23.224Z,5.50
2022-09-30T04:24:55.262Z,5.50
2022-09-30T04:27:24.100Z,5.50
2022-09-30T04:29:52.359Z,5.50
2022-09-30T04:32:24.311Z,5.50
2022-09-30T04:34:54.834Z,5.50
2022-09-30T04:37:23.632Z,5.50
2022-09-30T04:39:51.478Z,5.50
2022-09-30T04:42:20.046Z,5.50
2022-09-30T04:44:49.568Z,5.50
2022-09-30T04:47:16.998Z,5.50
2022-09-30T04:49:44.285Z,5.50
2022-09-30T04:52:12.003Z,5.50
2022-09-30T04:54:40.306Z,5.60
2022-09-30T04:57:07.594Z,5.60
2022-09-30T04:59:35.529Z,5.50
2022-09-30T05:02:03.348Z,5.60
2022-09-30T05:04:33.797Z,5.50
2022-09-30T05:07:02.077Z,5.60
2022-09-30T05:09:30.898Z,5.60
2022-09-30T05:11:58.210Z,5.50
2022-09-30T05:14:25.350Z,5.50
2022-09-30T05:16:53.518Z,5.40
2022-09-30T05:19:21.056Z,5.40
2022-09-30T05:21:55.036Z,5.40
2022-09-30T05:24:23.445Z,5.40
2022-09-30T05:26:52.569Z,5.40
2022-09-30T05:29:19.934Z,5.40
2022-09-30T05:31:47.528Z,5.30
2022-09-30T05:34:16.956Z,5.30
2022-09-30T05:36:48.449Z,5.30
2022-09-30T05:39:16.051Z,5.20
2022-09-30T05:41:43.190Z,5.20
2022-09-30T05:44:10.710Z,5.20
2022-09-30T05:46:37.807Z,5.30
2022-09-30T05:49:05.828Z,5.30
2022-09-30T05:51:32.997Z,5.30
2022-09-30T05:54:00.664Z,5.30
2022-09-30T05:56:28.109Z,5.40
2022-09-30T05:58:58.663Z,5.30
2022-09-30T06:01:25.570Z,5.40
2022-09-30T06:03:57.289Z,5.40
2022-09-30T06:06:25.752Z,5.40
2022-09-30T06:08:54.907Z,5.40
2022-09-30T06:11:25.882Z,5.40
2022-09-30T06:13:57.525Z,5.50
2022-09-30T06:16:24.945Z,5.50
2022-09-30T06:18:52.676Z,5.60
2022-09-30T06:21:20.205Z,5.70
2022-09-30T06:23:47.324Z,5.70
2022-09-30T06:26:17.651Z,5.70
2022-09-30T06:28:45.446Z,5.70
2022-09-30T06:31:12.774Z,5.80
2022-09-30T06:33:40.221Z,5.70
2022-09-30T06:36:08.605Z,5.80
2022-09-30T06:38:37.378Z,5.80
2022-09-30T06:41:09.799Z,5.80
2022-09-30T06:43:45.245Z,5.90
2022-09-30T06:46:17.661Z,5.90
2022-09-30T06:48:47.755Z,6.00
2022-09-30T06:51:15.496Z,6.10
2022-09-30T06:53:43.296Z,6.10
2022-09-30T06:56:10.672Z,6.20
2022-09-30T06:58:37.917Z,6.30
2022-09-30T07:01:06.935Z,6.40
2022-09-30T07:03:36.255Z,6.50
2022-09-30T07:06:05.917Z,6.50
2022-09-30T07:08:35.508Z,6.60
2022-09-30T07:11:12.957Z,6.70
2022-09-30T07:13:45.237Z,6.80
2022-09-30T07:16:14.232Z,6.80
2022-09-30T07:18:45.838Z,6.90
2022-09-30T07:21:16.335Z,7.00
2022-09-30T07:23:47.968Z,7.10
2022-09-30T07:26:17.977Z,7.20
2022-09-30T07:28:45.436Z,7.30
2022-09-30T07:31:35.658Z,7.40
2022-09-30T07:34:08.297Z,7.50
2022-09-30T07:36:38.102Z,7.60
2022-09-30T07:39:08.834Z,7.70
2022-09-30T07:41:39.448Z,7.80
2022-09-30T07:44:08.551Z,7.90
2022-09-30T07:46:40.587Z,8.00
2022-09-30T07:49:12.743Z,8.10
2022-09-30T07:51:41.913Z,8.20
2022-09-30T07:54:15.783Z,8.30
2022-09-30T07:59:36.149Z,8.40
2022-09-30T08:02:04.825Z,8.60
2022-09-30T08:04:32.128Z,8.70
2022-09-30T08:07:03.409Z,8.80
2022-09-30T08:09:31.582Z,8.90
2022-09-30T08:12:00.622Z,8.90
2022-09-30T08:14:28.831Z,9.10
2022-09-30T08:16:58.889Z,9.10
2022-09-30T08:19:28.680Z,9.20
2022-09-30T08:22:00.409Z,9.30
2022-09-30T08:24:27.994Z,9.40
2022-09-30T08:26:55.476Z,9.50
2022-09-30T08:32:11.339Z,9.70
2022-09-30T08:34:40.565Z,9.80
2022-09-30T08:37:09.744Z,9.90
2022-09-30T08:39:38.832Z,10.00
2022-09-30T08:42:25.484Z,10.20
2022-09-30T08:45:16.515Z,10.30
2022-09-30T08:48:24.392Z,10.40
2022-09-30T08:51:32.253Z,10.50
2022-09-30T08:54:03.022Z,10.70
2022-09-30T08:56:32.514Z,10.90
2022-09-30T08:59:28.988Z,11.00
2022-09-30T09:02:26.645Z,11.20
2022-09-30T09:05:00.008Z,11.40
2022-09-30T09:07:37.412Z,11.50
2022-09-30T09:10:29.511Z,11.70
2022-09-30T09:13:04.727Z,11.90
2022-09-30T09:15:41.150Z,12.20
2022-09-30T09:18:29.562Z,12.40
2022-09-30T09:21:30.468Z,12.70
2022-09-30T09:24:02.066Z,13.00
2022-09-30T09:26:36.485Z,13.30
2022-09-30T09:29:12.478Z,13.60
2022-09-30T09:31:40.095Z,13.80
2022-09-30T09:34:12.330Z,14.00
2022-09-30T09:36:43.107Z,14.30
2022-09-30T09:39:41.387Z,14.60
2022-09-30T09:42:42.453Z,14.80
2022-09-30T09:45:36.516Z,15.10
2022-09-30T09:48:13.827Z,15.30
2022-09-30T09:51:12.281Z,15.60
2022-09-30T09:53:50.492Z,15.90
2022-09-30T09:56:25.486Z,16.10
2022-09-30T09:59:11.200Z,16.20
2022-09-30T10:01:44.522Z,16.40
2022-09-30T10:04:19.967Z,16.50
2022-09-30T10:07:00.336Z,16.70
2022-09-30T10:09:39.943Z,16.60
2022-09-30T10:12:07.151Z,16.40
2022-09-30T10:14:53.751Z,16.40
2022-09-30T10:17:34.341Z,16.40
2022-09-30T10:20:17.105Z,16.50
2022-09-30T10:22:44.395Z,16.80
2022-09-30T10:25:14.473Z,17.30
2022-09-30T10:28:31.613Z,17.40
2022-09-30T10:31:02.874Z,17.50
2022-09-30T10:33:31.861Z,17.60
2022-09-30T10:36:07.221Z,17.70
2022-09-30T10:38:36.025Z,17.80
2022-09-30T10:41:04.781Z,17.70
2022-09-30T10:43:45.361Z,17.50
2022-09-30T10:46:27.269Z,17.50
2022-09-30T10:48:56.809Z,17.80
2022-09-30T10:51:36.383Z,18.20
2022-09-30T10:54:06.178Z,18.40
2022-09-30T10:56:44.256Z,18.70
2022-09-30T10:59:25.669Z,19.00
2022-09-30T11:02:05.285Z,19.10
2022-09-30T11:04:42.052Z,18.80
2022-09-30T11:07:31.946Z,18.30
2022-09-30T11:10:25.044Z,18.50
2022-09-30T11:13:13.893Z,18.60
2022-09-30T11:15:51.449Z,18.60
2022-09-30T11:18:37.733Z,18.70
2022-09-30T11:21:29.711Z,18.60
2022-09-30T11:24:08.526Z,18.90
2022-09-30T11:26:57.278Z,18.60
2022-09-30T11:29:53.450Z,18.30
2022-09-30T11:32:20.503Z,18.40
2022-09-30T11:35:23.854Z,18.30
2022-09-30T11:38:25.595Z,18.20
2022-09-30T11:40:59.088Z,18.10
2022-09-30T11:43:29.663Z,18.30
2022-09-30T11:46:31.445Z,18.90
2022-09-30T11:49:08.920Z,19.10
2022-09-30T11:51:59.177Z,19.50
2022-09-30T11:54:44.955Z,19.50
2022-09-30T11:57:23.434Z,19.90
2022-09-30T11:59:57.829Z,19.70
2022-09-30T12:02:44.649Z,20.00
2022-09-30T12:05:19.052Z,19.60
2022-09-30T12:07:54.904Z,19.70
2022-09-30T12:10:37.472Z,20.00
2022-09-30T12:13:19.915Z,19.60
2022-09-30T12:15:48.822Z,19.30
2022-09-30T12:18:34.781Z,19.10
2022-09-30T12:21:27.447Z,19.40
2022-09-30T12:24:06.559Z,19.40
2022-09-30T12:26:34.474Z,19.80
2022-09-30T12:29:32.485Z,19.50
2022-09-30T12:32:04.139Z,19.30
2022-09-30T12:34:44.144Z,19.10
2022-09-30T12:37:53.572Z,19.10
2022-09-30T12:40:52.341Z,19.40
2022-09-30T12:44:06.605Z,19.50
2022-09-30T12:47:08.984Z,19.90
2022-09-30T12:49:40.420Z,20.00
2022-09-30T12:52:17.520Z,19.90
2022-09-30T12:55:02.741Z,19.90
2022-09-30T12:57:38.819Z,19.70
2022-09-30T13:00:18.390Z,19.60
2022-09-30T13:02:49.671Z,19.60
2022-09-30T13:05:32.572Z,19.40
2022-09-30T13:08:24.262Z,19.00
2022-09-30T13:11:05.445Z,19.00
2022-09-30T13:13:35.287Z,19.00
2022-09-30T13:16:03.776Z,18.60
2022-09-30T13:18:53.908Z,18.70
2022-09-30T13:21:26.150Z,18.80
2022-09-30T13:23:58.161Z,19.10
2022-09-30T13:26:34.277Z,19.40
2022-09-30T13:29:01.842Z,19.40
2022-09-30T13:31:53.690Z,19.00
2022-09-30T13:34:33.769Z,18.60
2022-09-30T13:37:04.486Z,18.10
2022-09-30T13:39:34.843Z,18.00
2022-09-30T13:42:18.011Z,18.20
2022-09-30T13:45:31.428Z,18.80
2022-09-30T13:48:35.597Z,19.00
2022-09-30T13:51:10.653Z,19.00
2022-09-30T13:53:44.529Z,18.90
2022-09-30T13:56:27.867Z,18.50
2022-09-30T13:59:24.305Z,18.30
2022-09-30T14:02:22.476Z,18.00
2022-09-30T14:05:06.592Z,18.10
2022-09-30T14:07:49.452Z,18.30
2022-09-30T14:10:38.430Z,18.50
2022-09-30T14:13:34.014Z,18.60
2022-09-30T14:16:35.767Z,18.30
2022-09-30T14:19:29.292Z,18.40
2022-09-30T14:22:02.851Z,18.40
2022-09-30T14:24:37.628Z,18.20
2022-09-30T14:27:24.220Z,17.90
2022-09-30T14:30:07.166Z,17.70
2022-09-30T14:32:43.361Z,17.60
2022-09-30T14:35:19.752Z,17.50
2022-09-30T14:37:53.759Z,17.50
2022-09-30T14:40:27.583Z,17.30
2022-09-30T14:43:02.699Z,17.20
2022-09-30T14:45:33.989Z,17.20
2022-09-30T14:48:11.819Z,17.20
2022-09-30T14:51:05.555Z,17.20
2022-09-30T14:53:39.974Z,17.10
2022-09-30T14:56:23.617Z,17.00
2022-09-30T14:58:53.562Z,17.00
2022-09-30T15:01:23.753Z,16.90
2022-09-30T15:04:05.307Z,16.80
2022-09-30T15:06:36.116Z,16.80
2022-09-30T15:09:06.772Z,16.70
2022-09-30T15:11:39.463Z,16.60
2022-09-30T15:14:15.393Z,16.60
2022-09-30T15:17:05.130Z,16.50
2022-09-30T15:19:37.326Z,16.50
2022-09-30T15:22:07.261Z,16.50
2022-09-30T15:24:36.472Z,16.50
2022-09-30T15:27:04.739Z,16.50
2022-09-30T15:29:31.789Z,16.50
2022-09-30T15:32:03.838Z,16.60
2022-09-30T15:34:31.663Z,16.60
2022-09-30T15:37:06.894Z,16.60
2022-09-30T15:39:58.835Z,16.70
2022-09-30T15:42:55.610Z,16.70
2022-09-30T15:45:35.724Z,16.70
2022-09-30T15:48:27.868Z,16.60
2022-09-30T15:51:02.341Z,16.50
2022-09-30T15:53:36.799Z,16.50
2022-09-30T15:56:37.368Z,16.50
2022-09-30T15:59:09.564Z,16.50
2022-09-30T16:01:45.081Z,16.40
2022-09-30T16:04:24.831Z,16.30
2022-09-30T16:06:56.502Z,16.30
2022-09-30T16:09:27.459Z,16.30
2022-09-30T16:12:18.333Z,16.20
2022-09-30T16:14:50.162Z,16.20
2022-09-30T16:17:31.347Z,16.00
2022-09-30T16:20:07.984Z,16.00
2022-09-30T16:22:41.026Z,15.90
2022-09-30T16:25:20.922Z,15.80
2022-09-30T16:28:14.496Z,15.80
2022-09-30T16:30:47.748Z,15.60
2022-09-30T16:33:17.019Z,15.50
2022-09-30T16:35:47.518Z,15.40
2022-09-30T16:38:17.281Z,15.40
2022-09-30T16:40:44.428Z,15.30
2022-09-30T16:43:12.053Z,15.30
2022-09-30T16:45:41.264Z,15.20
2022-09-30T16:48:19.123Z,15.10
2022-09-30T16:51:24.984Z,15.00
2022-09-30T16:53:53.784Z,15.00
2022-09-30T16:56:20.987Z,14.90
2022-09-30T16:58:49.492Z,14.90
2022-09-30T17:01:24.450Z,14.80
2022-09-30T17:03:57.171Z,14.80
2022-09-30T17:06:32.388Z,14.70
2022-09-30T17:09:02.105Z,14.70
2022-09-30T17:11:33.807Z,14.60
2022-09-30T17:14:03.436Z,14.60
2022-09-30T17:16:31.511Z,14.50
2022-09-30T17:18:59.052Z,14.50
2022-09-30T17:21:27.564Z,14.40
2022-09-30T17:23:55.702Z,14.40
2022-09-30T17:26:23.935Z,14.30
2022-09-30T17:28:53.674Z,14.20
2022-09-30T17:31:24.928Z,14.20
2022-09-30T17:33:53.290Z,14.10
2022-09-30T17:36:20.479Z,14.00
2022-09-30T17:38:47.753Z,13.90
2022-09-30T17:41:34.594Z,13.90
2022-09-30T17:44:02.863Z,13.80
2022-09-30T17:46:41.348Z,13.80
2022-09-30T17:49:09.744Z,13.80
2022-09-30T17:51:37.821Z,13.70
2022-09-30T17:54:07.135Z,13.70
2022-09-30T17:56:35.049Z,13.70
2022-09-30T17:59:02.970Z,13.70
2022-09-30T18:01:31.802Z,13.70
2022-09-30T18:04:01.441Z,13.70
2022-09-30T18:06:28.890Z,13.60
2022-09-30T18:08:56.797Z,13.60
2022-09-30T18:11:27.622Z,13.60
2022-09-30T18:13:59.995Z,13.50
2022-09-30T18:16:33.684Z,13.50
2022-09-30T18:19:02.751Z,13.50
2022-09-30T18:21:31.000Z,13.40
2022-09-30T18:23:58.855Z,13.30
2022-09-30T18:26:33.064Z,13.30
2022-09-30T18:29:02.656Z,13.30
2022-09-30T18:31:34.818Z,13.30
2022-09-30T18:34:03.689Z,13.20
2022-09-30T18:36:32.688Z,13.20
2022-09-30T18:39:01.306Z,13.20
2022-09-30T18:41:30.645Z,13.20
2022-09-30T18:44:03.505Z,13.20
2022-09-30T18:46:33.507Z,13.10
2022-09-30T18:49:00.615Z,13.10
2022-09-30T18:51:29.247Z,13.10
2022-09-30T18:53:59.953Z,13.10
2022-09-30T18:56:32.098Z,13.00
2022-09-30T18:59:04.711Z,13.00
2022-09-30T19:01:34.491Z,12.90
2022-09-30T19:04:04.615Z,12.90
2022-09-30T19:06:33.810Z,12.80
2022-09-30T19:09:01.077Z,12.80
2022-09-30T19:11:30.695Z,12.80
2022-09-30T19:14:01.599Z,12.70
2022-09-30T19:16:29.630Z,12.70
2022-09-30T19:19:01.736Z,12.70
2022-09-30T19:21:37.489Z,12.70
2022-09-30T19:24:07.146Z,12.70
2022-09-30T19:26:37.044Z,12.70
2022-09-30T19:29:05.967Z,12.70
2022-09-30T19:31:36.214Z,12.80
2022-09-30T19:34:06.483Z,12.80
2022-09-30T19:36:45.403Z,12.80
2022-09-30T19:39:17.478Z,12.80
2022-09-30T19:41:46.475Z,12.80
2022-09-30T19:44:18.862Z,12.80
2022-09-30T19:46:49.486Z,12.80
2022-09-30T19:49:18.797Z,12.80
2022-09-30T19:51:45.975Z,12.80
2022-09-30T19:54:13.698Z,12.80
2022-09-30T19:56:41.229Z,12.80
2022-09-30T19:59:10.101Z,12.80
2022-09-30T20:02:10.828Z,12.90
2022-09-30T20:04:39.808Z,12.90
2022-09-30T20:07:07.265Z,12.90
2022-09-30T20:09:34.506Z,12.90
2022-09-30T20:12:02.191Z,12.90
2022-09-30T20:14:48.190Z,12.90
2022-09-30T20:17:16.680Z,12.90
2022-09-30T20:19:43.923Z,12.90
2022-09-30T20:22:11.245Z,12.90
2022-09-30T20:24:38.392Z,12.90
2022-09-30T20:27:05.797Z,13.00
2022-09-30T20:29:33.111Z,13.00
2022-09-30T20:32:02.401Z,13.00
2022-09-30T20:35:02.871Z,13.00
2022-09-30T20:37:30.275Z,13.00
2022-09-30T20:39:58.664Z,13.00
2022-09-30T20:42:28.140Z,13.10
2022-09-30T20:45:01.281Z,13.10
2022-09-30T20:47:28.765Z,13.10
2022-09-30T20:49:56.277Z,13.10
2022-09-30T20:52:25.730Z,13.10
2022-09-30T20:55:00.753Z,13.20
2022-09-30T20:57:30.272Z,13.10
2022-09-30T21:00:00.192Z,13.10
2022-09-30T21:02:29.319Z,13.10
2022-09-30T21:05:01.190Z,13.20
2022-09-30T21:07:28.223Z,13.20
2022-09-30T21:09:55.387Z,13.20
2022-09-30T21:12:24.339Z,13.20
2022-09-30T21:14:55.325Z,13.20
2022-09-30T21:17:23.855Z,13.30
2022-09-30T21:19:54.061Z,13.30
2022-09-30T21:22:22.295Z,13.30
2022-09-30T21:24:49.966Z,13.30
2022-09-30T21:27:17.996Z,13.30
2022-09-30T21:29:45.081Z,13.20
2022-09-30T21:32:12.281Z,13.30
2022-09-30T21:34:39.436Z,13.20
2022-09-30T21:37:07.904Z,13.30
2022-09-30T21:39:35.046Z,13.20
2022-09-30T21:42:04.235Z,13.30
2022-09-30T21:44:31.308Z,13.30
2022-09-30T21:46:58.621Z,13.30
2022-09-30T21:49:26.158Z,13.20
2022-09-30T21:51:53.760Z,13.30
2022-09-30T21:54:22.275Z,13.20
2022-09-30T21:56:49.563Z,13.30
2022-09-30T21:59:16.983Z,13.20
2022-09-30T22:01:44.479Z,13.30
2022-09-30T22:04:11.758Z,13.20
2022-09-30T22:06:38.904Z,13.20
2022-09-30T22:09:06.309Z,13.20
2022-09-30T22:11:33.965Z,13.20
2022-09-30T22:14:01.342Z,13.20
2022-09-30T22:16:32.222Z,13.20
2022-09-30T22:19:01.123Z,13.20
2022-09-30T22:21:33.695Z,13.20
2022-09-30T22:24:02.946Z,13.20
2022-09-30T22:26:31.583Z,13.10
2022-09-30T22:29:05.746Z,13.00
2022-09-30T22:31:34.157Z,12.90
2022-09-30T22:34:23.409Z,12.80
2022-09-30T22:37:09.221Z,12.80
2022-09-30T22:39:36.934Z,12.70
2022-09-30T22:42:04.195Z,12.60
2022-09-30T22:44:34.123Z,12.60
2022-09-30T22:47:02.426Z,12.50
2022-09-30T22:49:33.386Z,12.50
2022-09-30T22:52:02.125Z,12.40
2022-09-30T22:54:30.044Z,12.40
2022-09-30T22:56:59.426Z,12.40
2022-09-30T22:59:27.972Z,12.30
2022-09-30T23:01:55.915Z,12.30
2022-09-30T23:04:28.418Z,12.20
2022-09-30T23:06:55.636Z,12.20
2022-09-30T23:09:23.965Z,12.20
2022-09-30T23:11:55.753Z,12.20
2022-09-30T23:14:23.960Z,12.20
2022-09-30T23:16:54.315Z,12.10
2022-09-30T23:19:23.709Z,12.10
2022-09-30T23:21:51.273Z,12.00
2022-09-30T23:24:20.741Z,12.00
2022-09-30T23:26:47.994Z,12.00
2022-09-30T23:29:16.093Z,12.00
2022-09-30T23:31:43.722Z,12.00
2022-09-30T23:34:13.182Z,11.90
2022-09-30T23:36:40.885Z,11.90
2022-09-30T23:39:12.862Z,11.90
2022-09-30T23:41:40.418Z,11.90
2022-09-30T23:44:09.942Z,11.90
2022-09-30T23:46:37.194Z,11.80
2022-09-30T23:49:04.346Z,11.80
2022-09-30T23:51:33.639Z,11.80
2022-09-30T23:54:02.449Z,11.80
2022-09-30T23:56:29.548Z,11.70
2022-09-30T23:58:57.625Z,11.70
